Live ATC SBMG!



Copyright © 2009-2014 todos os direitos reservados
Proibida a reprodução total ou parcial.
NOTICE Unauthorized linking and use of audio feeds is prohibited. See LiveATC.net Terms of Service 

sábado, 8 de setembro de 2012

SÁBADO DE CANCELAMENTOS PROGRAMADOS E NÉVOA SECA NO SBMG!



O SBMG FICOU FECHADO UMA PARTE DESSA MANHÃ DE SÁBADO.
MAS NADA A VER COM O TEMPO, ATÉ PORQUE ESSA FOI UMA SEMANA CAVOK POR AQUI!
O AERÓDROMO FECHOU PARA QUE FOSSEM REALIZADAS OBRAS NA PISTA, OBRAS QUE NÃO ACONTECERAM NA VERDADE, MAS JÁ TINHA NOTAM E OS VOOS JÁ ESTAVAM CANCELADOS......
TIVEMOS 3 PERNOITES, SENDO OS DOIS DA GOL QUE DECOLARAM NO HORÁRIO PARA SBSP E SBCT, E UM DA TRIP QUE FARÁ O VOO PARA SBCT DEPOIS DAS 14HS, OS VOOS DA GOL E TRIP QUE PASSAM PELO SBMG DE MANHÃ FORAM CANCELADOS PELAS COMPANHIAS.
AGORA O QUE TODOS PERCEBERAM DURANTE ESSES DIAS FOI A NEVOA SECA NO SBMG, EM ALGUMAS FOTOS AO FUNDO DÁ PARA PERCEBER.
NO MAIS O SABADÃO ESTÁ CAVOK NO SBMG 
METAR : SBMG 081600Z 36016G26KT CAVOK 35/09 Q1018=

Nenhum comentário:

Postar um comentário